sensor_id;sensor_type;location;lat;lon;timestamp;P1;durP1;ratioP1;P2;durP2;ratioP2
70266;SDS011;57676;43.856;1.926;2022-08-03T00:01:37;5.50;;;1.58;;
70266;SDS011;57676;43.856;1.926;2022-08-03T00:04:05;1.48;;;1.25;;
70266;SDS011;57676;43.856;1.926;2022-08-03T00:06:32;2.80;;;1.60;;
70266;SDS011;57676;43.856;1.926;2022-08-03T00:08:59;2.85;;;1.25;;
70266;SDS011;57676;43.856;1.926;2022-08-03T00:11:24;4.30;;;1.55;;
70266;SDS011;57676;43.856;1.926;2022-08-03T00:13:50;2.35;;;1.77;;
70266;SDS011;57676;43.856;1.926;2022-08-03T00:16:16;3.10;;;1.52;;
70266;SDS011;57676;43.856;1.926;2022-08-03T00:18:42;6.15;;;1.38;;
70266;SDS011;57676;43.856;1.926;2022-08-03T00:21:08;1.70;;;1.40;;
70266;SDS011;57676;43.856;1.926;2022-08-03T00:23:34;1.92;;;1.67;;
70266;SDS011;57676;43.856;1.926;2022-08-03T00:26:00;4.05;;;1.60;;
70266;SDS011;57676;43.856;1.926;2022-08-03T00:28:26;2.17;;;1.40;;
70266;SDS011;57676;43.856;1.926;2022-08-03T00:30:53;1.92;;;1.38;;
70266;SDS011;57676;43.856;1.926;2022-08-03T00:33:20;3.22;;;1.50;;
70266;SDS011;57676;43.856;1.926;2022-08-03T00:35:46;2.33;;;1.42;;
70266;SDS011;57676;43.856;1.926;2022-08-03T00:38:12;3.78;;;1.70;;
70266;SDS011;57676;43.856;1.926;2022-08-03T00:40:38;2.35;;;1.63;;
70266;SDS011;57676;43.856;1.926;2022-08-03T00:43:05;1.48;;;1.38;;
70266;SDS011;57676;43.856;1.926;2022-08-03T00:45:33;6.40;;;1.73;;
70266;SDS011;57676;43.856;1.926;2022-08-03T00:48:01;2.55;;;1.50;;
70266;SDS011;57676;43.856;1.926;2022-08-03T00:50:29;2.42;;;1.50;;
70266;SDS011;57676;43.856;1.926;2022-08-03T00:52:59;2.35;;;1.40;;
70266;SDS011;57676;43.856;1.926;2022-08-03T00:55:26;4.32;;;1.58;;
70266;SDS011;57676;43.856;1.926;2022-08-03T00:57:52;2.80;;;1.70;;
70266;SDS011;57676;43.856;1.926;2022-08-03T01:00:19;5.53;;;1.38;;
70266;SDS011;57676;43.856;1.926;2022-08-03T01:02:46;3.40;;;1.30;;
70266;SDS011;57676;43.856;1.926;2022-08-03T01:05:12;9.73;;;2.08;;
70266;SDS011;57676;43.856;1.926;2022-08-03T01:07:41;3.17;;;1.50;;
70266;SDS011;57676;43.856;1.926;2022-08-03T01:10:24;2.27;;;1.40;;
70266;SDS011;57676;43.856;1.926;2022-08-03T01:16:11;3.67;;;1.73;;
70266;SDS011;57676;43.856;1.926;2022-08-03T01:18:50;3.80;;;1.30;;
70266;SDS011;57676;43.856;1.926;2022-08-03T01:21:26;4.60;;;1.75;;
70266;SDS011;57676;43.856;1.926;2022-08-03T01:24:00;2.65;;;1.50;;
70266;SDS011;57676;43.856;1.926;2022-08-03T01:32:38;3.10;;;1.70;;
70266;SDS011;57676;43.856;1.926;2022-08-03T01:35:27;2.55;;;1.60;;
70266;SDS011;57676;43.856;1.926;2022-08-03T01:38:21;2.67;;;1.50;;
70266;SDS011;57676;43.856;1.926;2022-08-03T01:40:51;3.08;;;1.60;;
70266;SDS011;57676;43.856;1.926;2022-08-03T01:43:18;4.18;;;1.50;;
70266;SDS011;57676;43.856;1.926;2022-08-03T01:45:52;3.25;;;1.40;;
70266;SDS011;57676;43.856;1.926;2022-08-03T01:48:21;6.18;;;1.70;;
70266;SDS011;57676;43.856;1.926;2022-08-03T01:50:48;2.67;;;1.45;;
70266;SDS011;57676;43.856;1.926;2022-08-03T01:53:16;3.50;;;1.90;;
70266;SDS011;57676;43.856;1.926;2022-08-03T01:55:45;4.63;;;1.77;;
70266;SDS011;57676;43.856;1.926;2022-08-03T01:58:14;2.42;;;1.67;;
70266;SDS011;57676;43.856;1.926;2022-08-03T02:00:41;4.22;;;1.30;;
70266;SDS011;57676;43.856;1.926;2022-08-03T02:03:09;3.67;;;1.23;;
70266;SDS011;57676;43.856;1.926;2022-08-03T02:05:39;2.95;;;1.25;;
70266;SDS011;57676;43.856;1.926;2022-08-03T02:08:07;4.28;;;1.48;;
70266;SDS011;57676;43.856;1.926;2022-08-03T02:10:37;2.60;;;1.20;;
70266;SDS011;57676;43.856;1.926;2022-08-03T02:13:08;5.07;;;1.77;;
70266;SDS011;57676;43.856;1.926;2022-08-03T02:15:35;1.60;;;1.25;;
70266;SDS011;57676;43.856;1.926;2022-08-03T02:18:04;1.60;;;1.30;;
70266;SDS011;57676;43.856;1.926;2022-08-03T02:20:32;2.17;;;1.25;;
70266;SDS011;57676;43.856;1.926;2022-08-03T02:23:00;3.40;;;1.50;;
70266;SDS011;57676;43.856;1.926;2022-08-03T02:25:26;2.67;;;1.42;;
70266;SDS011;57676;43.856;1.926;2022-08-03T02:27:55;3.58;;;1.63;;
70266;SDS011;57676;43.856;1.926;2022-08-03T02:30:28;6.32;;;1.33;;
70266;SDS011;57676;43.856;1.926;2022-08-03T02:35:49;1.88;;;1.10;;
70266;SDS011;57676;43.856;1.926;2022-08-03T02:38:17;2.85;;;1.20;;
70266;SDS011;57676;43.856;1.926;2022-08-03T02:40:48;1.50;;;1.30;;
70266;SDS011;57676;43.856;1.926;2022-08-03T02:43:19;2.95;;;1.30;;
70266;SDS011;57676;43.856;1.926;2022-08-03T02:45:47;6.07;;;1.50;;
70266;SDS011;57676;43.856;1.926;2022-08-03T02:48:17;3.70;;;1.55;;
70266;SDS011;57676;43.856;1.926;2022-08-03T02:50:47;1.92;;;1.40;;
70266;SDS011;57676;43.856;1.926;2022-08-03T02:53:17;2.80;;;1.50;;
70266;SDS011;57676;43.856;1.926;2022-08-03T02:55:45;3.67;;;1.45;;
70266;SDS011;57676;43.856;1.926;2022-08-03T02:58:12;4.90;;;1.42;;
70266;SDS011;57676;43.856;1.926;2022-08-03T03:00:42;5.70;;;1.15;;
70266;SDS011;57676;43.856;1.926;2022-08-03T03:03:09;3.70;;;1.33;;
70266;SDS011;57676;43.856;1.926;2022-08-03T03:05:35;1.80;;;1.40;;
70266;SDS011;57676;43.856;1.926;2022-08-03T03:08:02;4.75;;;1.70;;
70266;SDS011;57676;43.856;1.926;2022-08-03T03:10:29;3.80;;;1.42;;
70266;SDS011;57676;43.856;1.926;2022-08-03T03:12:56;7.03;;;1.30;;
70266;SDS011;57676;43.856;1.926;2022-08-03T03:15:23;3.20;;;1.30;;
70266;SDS011;57676;43.856;1.926;2022-08-03T03:17:51;3.90;;;1.35;;
70266;SDS011;57676;43.856;1.926;2022-08-03T03:20:19;1.42;;;1.33;;
70266;SDS011;57676;43.856;1.926;2022-08-03T03:22:46;2.58;;;1.52;;
70266;SDS011;57676;43.856;1.926;2022-08-03T03:25:13;4.03;;;1.17;;
70266;SDS011;57676;43.856;1.926;2022-08-03T03:27:39;4.47;;;1.50;;
70266;SDS011;57676;43.856;1.926;2022-08-03T03:30:06;4.15;;;1.45;;
70266;SDS011;57676;43.856;1.926;2022-08-03T03:32:33;2.08;;;1.20;;
70266;SDS011;57676;43.856;1.926;2022-08-03T03:35:01;2.85;;;1.80;;
70266;SDS011;57676;43.856;1.926;2022-08-03T03:37:27;3.60;;;1.40;;
70266;SDS011;57676;43.856;1.926;2022-08-03T03:39:53;37.78;;;2.40;;
70266;SDS011;57676;43.856;1.926;2022-08-03T03:42:19;9.45;;;1.67;;
70266;SDS011;57676;43.856;1.926;2022-08-03T03:44:45;5.05;;;1.67;;
70266;SDS011;57676;43.856;1.926;2022-08-03T03:47:11;1.98;;;1.42;;
70266;SDS011;57676;43.856;1.926;2022-08-03T03:49:38;2.45;;;1.40;;
70266;SDS011;57676;43.856;1.926;2022-08-03T03:52:04;1.50;;;1.20;;
70266;SDS011;57676;43.856;1.926;2022-08-03T03:57:16;20.55;;;2.63;;
70266;SDS011;57676;43.856;1.926;2022-08-03T03:59:42;1.73;;;1.27;;
70266;SDS011;57676;43.856;1.926;2022-08-03T04:02:08;3.55;;;1.60;;
70266;SDS011;57676;43.856;1.926;2022-08-03T04:04:36;4.97;;;1.27;;
70266;SDS011;57676;43.856;1.926;2022-08-03T04:07:23;8.63;;;1.60;;
70266;SDS011;57676;43.856;1.926;2022-08-03T04:10:14;3.05;;;1.80;;
70266;SDS011;57676;43.856;1.926;2022-08-03T04:13:03;3.95;;;1.63;;
70266;SDS011;57676;43.856;1.926;2022-08-03T04:15:34;4.15;;;1.38;;
70266;SDS011;57676;43.856;1.926;2022-08-03T04:18:02;4.90;;;1.70;;
70266;SDS011;57676;43.856;1.926;2022-08-03T04:20:30;9.82;;;1.83;;
70266;SDS011;57676;43.856;1.926;2022-08-03T04:22:59;12.68;;;1.95;;
70266;SDS011;57676;43.856;1.926;2022-08-03T04:25:27;12.38;;;1.80;;
70266;SDS011;57676;43.856;1.926;2022-08-03T04:27:58;15.43;;;2.25;;
70266;SDS011;57676;43.856;1.926;2022-08-03T04:30:27;18.77;;;2.28;;
70266;SDS011;57676;43.856;1.926;2022-08-03T04:32:54;8.45;;;1.90;;
70266;SDS011;57676;43.856;1.926;2022-08-03T04:35:22;7.07;;;2.08;;
70266;SDS011;57676;43.856;1.926;2022-08-03T04:37:50;12.43;;;1.70;;
70266;SDS011;57676;43.856;1.926;2022-08-03T04:40:20;9.30;;;1.83;;
70266;SDS011;57676;43.856;1.926;2022-08-03T04:42:50;5.55;;;1.35;;
70266;SDS011;57676;43.856;1.926;2022-08-03T04:45:19;7.18;;;1.70;;
70266;SDS011;57676;43.856;1.926;2022-08-03T04:47:46;6.60;;;1.55;;
70266;SDS011;57676;43.856;1.926;2022-08-03T04:50:14;10.30;;;1.73;;
70266;SDS011;57676;43.856;1.926;2022-08-03T04:52:41;7.55;;;1.92;;
70266;SDS011;57676;43.856;1.926;2022-08-03T04:55:07;10.18;;;1.42;;
70266;SDS011;57676;43.856;1.926;2022-08-03T04:57:33;7.00;;;1.50;;
70266;SDS011;57676;43.856;1.926;2022-08-03T04:59:59;4.93;;;1.67;;
70266;SDS011;57676;43.856;1.926;2022-08-03T05:02:24;16.05;;;2.38;;
70266;SDS011;57676;43.856;1.926;2022-08-03T05:04:50;10.82;;;1.88;;
70266;SDS011;57676;43.856;1.926;2022-08-03T05:07:16;9.98;;;2.35;;
70266;SDS011;57676;43.856;1.926;2022-08-03T05:09:43;5.65;;;1.73;;
70266;SDS011;57676;43.856;1.926;2022-08-03T05:12:09;4.97;;;1.52;;
70266;SDS011;57676;43.856;1.926;2022-08-03T05:14:36;9.15;;;1.60;;
70266;SDS011;57676;43.856;1.926;2022-08-03T05:17:04;13.98;;;2.03;;
70266;SDS011;57676;43.856;1.926;2022-08-03T05:19:30;14.20;;;2.33;;
70266;SDS011;57676;43.856;1.926;2022-08-03T05:21:56;7.95;;;1.90;;
70266;SDS011;57676;43.856;1.926;2022-08-03T05:24:22;9.32;;;1.88;;
70266;SDS011;57676;43.856;1.926;2022-08-03T05:26:48;14.02;;;2.00;;
70266;SDS011;57676;43.856;1.926;2022-08-03T05:29:14;6.70;;;1.73;;
70266;SDS011;57676;43.856;1.926;2022-08-03T05:31:40;7.53;;;1.63;;
70266;SDS011;57676;43.856;1.926;2022-08-03T05:34:05;11.32;;;1.77;;
70266;SDS011;57676;43.856;1.926;2022-08-03T05:36:31;6.57;;;1.30;;
70266;SDS011;57676;43.856;1.926;2022-08-03T05:38:57;6.50;;;1.50;;
70266;SDS011;57676;43.856;1.926;2022-08-03T05:41:23;11.18;;;1.67;;
70266;SDS011;57676;43.856;1.926;2022-08-03T05:43:50;6.03;;;1.50;;
70266;SDS011;57676;43.856;1.926;2022-08-03T05:46:17;8.43;;;1.45;;
70266;SDS011;57676;43.856;1.926;2022-08-03T05:48:44;6.80;;;1.65;;
70266;SDS011;57676;43.856;1.926;2022-08-03T05:51:10;7.40;;;1.75;;
70266;SDS011;57676;43.856;1.926;2022-08-03T05:53:37;6.95;;;1.40;;
70266;SDS011;57676;43.856;1.926;2022-08-03T05:56:04;6.65;;;1.58;;
70266;SDS011;57676;43.856;1.926;2022-08-03T05:58:30;11.38;;;1.70;;
70266;SDS011;57676;43.856;1.926;2022-08-03T06:00:55;11.93;;;1.77;;
70266;SDS011;57676;43.856;1.926;2022-08-03T06:03:21;9.02;;;1.73;;
70266;SDS011;57676;43.856;1.926;2022-08-03T06:05:47;4.35;;;1.60;;
70266;SDS011;57676;43.856;1.926;2022-08-03T06:08:13;8.55;;;1.83;;
70266;SDS011;57676;43.856;1.926;2022-08-03T06:10:38;6.75;;;2.05;;
70266;SDS011;57676;43.856;1.926;2022-08-03T06:13:04;7.28;;;1.52;;
70266;SDS011;57676;43.856;1.926;2022-08-03T06:15:30;4.88;;;1.50;;
70266;SDS011;57676;43.856;1.926;2022-08-03T06:17:57;3.58;;;1.35;;
70266;SDS011;57676;43.856;1.926;2022-08-03T06:20:23;4.35;;;1.90;;
70266;SDS011;57676;43.856;1.926;2022-08-03T06:22:49;3.10;;;1.92;;
70266;SDS011;57676;43.856;1.926;2022-08-03T06:25:15;13.82;;;1.95;;
70266;SDS011;57676;43.856;1.926;2022-08-03T06:27:42;9.57;;;2.67;;
70266;SDS011;57676;43.856;1.926;2022-08-03T06:30:08;9.15;;;1.90;;
70266;SDS011;57676;43.856;1.926;2022-08-03T06:32:36;10.07;;;2.00;;
70266;SDS011;57676;43.856;1.926;2022-08-03T06:35:05;11.07;;;2.08;;
70266;SDS011;57676;43.856;1.926;2022-08-03T06:40:19;3.80;;;1.63;;
70266;SDS011;57676;43.856;1.926;2022-08-03T06:42:56;5.75;;;2.55;;
70266;SDS011;57676;43.856;1.926;2022-08-03T06:45:22;4.85;;;1.63;;
70266;SDS011;57676;43.856;1.926;2022-08-03T06:47:58;3.47;;;2.05;;
70266;SDS011;57676;43.856;1.926;2022-08-03T06:50:26;3.50;;;2.03;;
70266;SDS011;57676;43.856;1.926;2022-08-03T06:52:52;5.63;;;2.25;;
70266;SDS011;57676;43.856;1.926;2022-08-03T06:55:18;2.92;;;1.95;;
70266;SDS011;57676;43.856;1.926;2022-08-03T06:57:44;3.95;;;2.17;;
70266;SDS011;57676;43.856;1.926;2022-08-03T07:00:10;5.93;;;2.45;;
70266;SDS011;57676;43.856;1.926;2022-08-03T07:02:41;8.32;;;2.20;;
70266;SDS011;57676;43.856;1.926;2022-08-03T07:05:08;6.43;;;2.50;;
70266;SDS011;57676;43.856;1.926;2022-08-03T07:07:35;4.57;;;2.20;;
70266;SDS011;57676;43.856;1.926;2022-08-03T07:10:02;4.70;;;2.38;;
70266;SDS011;57676;43.856;1.926;2022-08-03T07:12:30;4.68;;;2.50;;
70266;SDS011;57676;43.856;1.926;2022-08-03T07:14:58;6.28;;;2.33;;
70266;SDS011;57676;43.856;1.926;2022-08-03T07:17:25;7.75;;;2.38;;
70266;SDS011;57676;43.856;1.926;2022-08-03T07:19:51;2.95;;;2.28;;
70266;SDS011;57676;43.856;1.926;2022-08-03T07:22:16;2.70;;;2.33;;
70266;SDS011;57676;43.856;1.926;2022-08-03T07:24:42;5.25;;;2.50;;
70266;SDS011;57676;43.856;1.926;2022-08-03T07:27:08;4.00;;;1.98;;
70266;SDS011;57676;43.856;1.926;2022-08-03T07:29:34;2.22;;;1.88;;
70266;SDS011;57676;43.856;1.926;2022-08-03T07:32:01;2.83;;;1.95;;
70266;SDS011;57676;43.856;1.926;2022-08-03T07:34:27;4.45;;;1.90;;
70266;SDS011;57676;43.856;1.926;2022-08-03T07:36:53;3.55;;;2.03;;
70266;SDS011;57676;43.856;1.926;2022-08-03T07:39:19;8.10;;;2.63;;
70266;SDS011;57676;43.856;1.926;2022-08-03T07:41:45;4.57;;;2.00;;
70266;SDS011;57676;43.856;1.926;2022-08-03T07:44:12;3.05;;;2.30;;
70266;SDS011;57676;43.856;1.926;2022-08-03T07:46:38;5.22;;;1.83;;
70266;SDS011;57676;43.856;1.926;2022-08-03T07:49:05;6.35;;;2.20;;
70266;SDS011;57676;43.856;1.926;2022-08-03T07:51:31;5.15;;;2.22;;
70266;SDS011;57676;43.856;1.926;2022-08-03T07:53:57;3.90;;;2.33;;
70266;SDS011;57676;43.856;1.926;2022-08-03T07:56:25;3.72;;;2.50;;
70266;SDS011;57676;43.856;1.926;2022-08-03T07:58:52;6.10;;;2.33;;
70266;SDS011;57676;43.856;1.926;2022-08-03T08:01:18;6.55;;;2.90;;
70266;SDS011;57676;43.856;1.926;2022-08-03T08:03:44;7.75;;;2.40;;
70266;SDS011;57676;43.856;1.926;2022-08-03T08:06:11;4.93;;;2.85;;
70266;SDS011;57676;43.856;1.926;2022-08-03T08:08:37;6.38;;;3.03;;
70266;SDS011;57676;43.856;1.926;2022-08-03T08:11:04;3.15;;;2.88;;
70266;SDS011;57676;43.856;1.926;2022-08-03T08:13:30;7.15;;;3.80;;
70266;SDS011;57676;43.856;1.926;2022-08-03T08:15:56;8.07;;;3.70;;
70266;SDS011;57676;43.856;1.926;2022-08-03T08:18:22;8.68;;;3.92;;
70266;SDS011;57676;43.856;1.926;2022-08-03T08:20:49;4.80;;;4.40;;
70266;SDS011;57676;43.856;1.926;2022-08-03T08:23:15;7.10;;;4.55;;
70266;SDS011;57676;43.856;1.926;2022-08-03T08:25:47;9.90;;;5.70;;
70266;SDS011;57676;43.856;1.926;2022-08-03T08:28:17;11.73;;;5.30;;
70266;SDS011;57676;43.856;1.926;2022-08-03T08:30:46;6.47;;;5.85;;
70266;SDS011;57676;43.856;1.926;2022-08-03T08:33:13;6.22;;;5.65;;
70266;SDS011;57676;43.856;1.926;2022-08-03T08:35:39;6.35;;;5.90;;
70266;SDS011;57676;43.856;1.926;2022-08-03T08:38:05;6.45;;;5.93;;
70266;SDS011;57676;43.856;1.926;2022-08-03T08:40:31;7.50;;;5.72;;
70266;SDS011;57676;43.856;1.926;2022-08-03T08:42:57;6.32;;;5.93;;
70266;SDS011;57676;43.856;1.926;2022-08-03T08:45:22;7.00;;;6.07;;
70266;SDS011;57676;43.856;1.926;2022-08-03T08:47:48;7.40;;;6.90;;
70266;SDS011;57676;43.856;1.926;2022-08-03T08:50:17;7.15;;;6.45;;
70266;SDS011;57676;43.856;1.926;2022-08-03T08:52:45;6.40;;;5.93;;
70266;SDS011;57676;43.856;1.926;2022-08-03T08:55:17;6.63;;;5.95;;
70266;SDS011;57676;43.856;1.926;2022-08-03T08:57:49;9.18;;;7.43;;
70266;SDS011;57676;43.856;1.926;2022-08-03T09:00:21;6.97;;;6.43;;
70266;SDS011;57676;43.856;1.926;2022-08-03T09:02:47;9.30;;;7.05;;
70266;SDS011;57676;43.856;1.926;2022-08-03T09:05:14;6.80;;;6.30;;
70266;SDS011;57676;43.856;1.926;2022-08-03T09:07:41;7.55;;;6.85;;
70266;SDS011;57676;43.856;1.926;2022-08-03T09:10:10;8.38;;;7.40;;
70266;SDS011;57676;43.856;1.926;2022-08-03T09:12:38;7.20;;;6.60;;
70266;SDS011;57676;43.856;1.926;2022-08-03T09:15:28;7.03;;;6.35;;
70266;SDS011;57676;43.856;1.926;2022-08-03T09:17:56;7.43;;;6.45;;
70266;SDS011;57676;43.856;1.926;2022-08-03T09:20:25;9.15;;;6.80;;
70266;SDS011;57676;43.856;1.926;2022-08-03T09:23:00;6.68;;;6.18;;
70266;SDS011;57676;43.856;1.926;2022-08-03T09:25:29;7.72;;;5.97;;
70266;SDS011;57676;43.856;1.926;2022-08-03T09:30:44;5.82;;;5.30;;
70266;SDS011;57676;43.856;1.926;2022-08-03T09:33:22;6.93;;;5.40;;
70266;SDS011;57676;43.856;1.926;2022-08-03T09:35:48;8.63;;;5.72;;
70266;SDS011;57676;43.856;1.926;2022-08-03T09:38:15;6.50;;;6.05;;
70266;SDS011;57676;43.856;1.926;2022-08-03T09:40:43;6.40;;;5.90;;
70266;SDS011;57676;43.856;1.926;2022-08-03T09:43:10;6.07;;;5.25;;
70266;SDS011;57676;43.856;1.926;2022-08-03T09:45:37;6.07;;;5.50;;
70266;SDS011;57676;43.856;1.926;2022-08-03T09:50:53;6.20;;;4.80;;
70266;SDS011;57676;43.856;1.926;2022-08-03T09:53:21;5.68;;;5.18;;
70266;SDS011;57676;43.856;1.926;2022-08-03T09:55:52;5.60;;;5.20;;
70266;SDS011;57676;43.856;1.926;2022-08-03T09:58:20;8.55;;;5.32;;
70266;SDS011;57676;43.856;1.926;2022-08-03T10:03:34;5.35;;;4.78;;
70266;SDS011;57676;43.856;1.926;2022-08-03T10:11:38;5.55;;;5.15;;
70266;SDS011;57676;43.856;1.926;2022-08-03T10:14:06;6.15;;;5.20;;
70266;SDS011;57676;43.856;1.926;2022-08-03T10:16:34;5.18;;;4.60;;
70266;SDS011;57676;43.856;1.926;2022-08-03T10:19:03;6.28;;;4.80;;
70266;SDS011;57676;43.856;1.926;2022-08-03T10:21:32;6.40;;;5.43;;
70266;SDS011;57676;43.856;1.926;2022-08-03T10:24:02;5.07;;;4.53;;
70266;SDS011;57676;43.856;1.926;2022-08-03T10:26:33;8.35;;;4.53;;
70266;SDS011;57676;43.856;1.926;2022-08-03T10:29:02;6.53;;;4.10;;
70266;SDS011;57676;43.856;1.926;2022-08-03T10:31:34;5.07;;;4.75;;
70266;SDS011;57676;43.856;1.926;2022-08-03T10:34:04;5.32;;;4.82;;
70266;SDS011;57676;43.856;1.926;2022-08-03T10:36:35;4.55;;;4.00;;
70266;SDS011;57676;43.856;1.926;2022-08-03T10:39:02;4.57;;;4.18;;
70266;SDS011;57676;43.856;1.926;2022-08-03T10:41:31;5.05;;;4.70;;
70266;SDS011;57676;43.856;1.926;2022-08-03T10:44:02;4.90;;;4.55;;
70266;SDS011;57676;43.856;1.926;2022-08-03T10:46:32;4.65;;;4.20;;
70266;SDS011;57676;43.856;1.926;2022-08-03T10:49:00;7.43;;;4.75;;
70266;SDS011;57676;43.856;1.926;2022-08-03T10:51:27;4.60;;;4.25;;
70266;SDS011;57676;43.856;1.926;2022-08-03T10:53:56;5.07;;;4.70;;
70266;SDS011;57676;43.856;1.926;2022-08-03T11:04:46;7.82;;;4.80;;
70266;SDS011;57676;43.856;1.926;2022-08-03T11:08:16;4.95;;;4.55;;
70266;SDS011;57676;43.856;1.926;2022-08-03T11:11:00;4.90;;;4.38;;
70266;SDS011;57676;43.856;1.926;2022-08-03T11:13:28;5.65;;;4.28;;
70266;SDS011;57676;43.856;1.926;2022-08-03T11:15:58;4.95;;;4.57;;
70266;SDS011;57676;43.856;1.926;2022-08-03T11:18:26;6.82;;;5.18;;
70266;SDS011;57676;43.856;1.926;2022-08-03T11:20:53;5.15;;;4.45;;
70266;SDS011;57676;43.856;1.926;2022-08-03T11:26:11;4.63;;;4.22;;
70266;SDS011;57676;43.856;1.926;2022-08-03T11:28:39;4.90;;;4.30;;
70266;SDS011;57676;43.856;1.926;2022-08-03T11:34:13;5.72;;;3.92;;
70266;SDS011;57676;43.856;1.926;2022-08-03T11:39:46;7.72;;;4.25;;
70266;SDS011;57676;43.856;1.926;2022-08-03T11:45:02;4.38;;;4.07;;
70266;SDS011;57676;43.856;1.926;2022-08-03T11:47:34;5.15;;;4.65;;
70266;SDS011;57676;43.856;1.926;2022-08-03T11:50:01;4.82;;;4.40;;
70266;SDS011;57676;43.856;1.926;2022-08-03T11:55:14;5.60;;;4.78;;
70266;SDS011;57676;43.856;1.926;2022-08-03T11:57:44;5.75;;;4.35;;
70266;SDS011;57676;43.856;1.926;2022-08-03T12:02:58;4.32;;;4.00;;
70266;SDS011;57676;43.856;1.926;2022-08-03T12:08:14;6.07;;;4.47;;
70266;SDS011;57676;43.856;1.926;2022-08-03T12:10:46;4.30;;;4.00;;
70266;SDS011;57676;43.856;1.926;2022-08-03T12:13:13;4.75;;;4.45;;
70266;SDS011;57676;43.856;1.926;2022-08-03T12:15:40;5.32;;;4.60;;
70266;SDS011;57676;43.856;1.926;2022-08-03T12:20:52;4.60;;;4.30;;
70266;SDS011;57676;43.856;1.926;2022-08-03T12:23:27;6.10;;;4.70;;
70266;SDS011;57676;43.856;1.926;2022-08-03T12:25:53;7.43;;;4.57;;
70266;SDS011;57676;43.856;1.926;2022-08-03T12:28:28;4.22;;;3.85;;
70266;SDS011;57676;43.856;1.926;2022-08-03T12:30:54;5.47;;;5.03;;
70266;SDS011;57676;43.856;1.926;2022-08-03T12:33:23;5.32;;;5.00;;
70266;SDS011;57676;43.856;1.926;2022-08-03T12:38:37;4.38;;;4.05;;
70266;SDS011;57676;43.856;1.926;2022-08-03T12:41:05;5.60;;;4.85;;
70266;SDS011;57676;43.856;1.926;2022-08-03T12:51:37;5.68;;;5.18;;
70266;SDS011;57676;43.856;1.926;2022-08-03T12:54:24;5.22;;;4.70;;
70266;SDS011;57676;43.856;1.926;2022-08-03T12:59:40;9.15;;;4.85;;
70266;SDS011;57676;43.856;1.926;2022-08-03T13:02:15;5.88;;;4.72;;
70266;SDS011;57676;43.856;1.926;2022-08-03T13:04:43;6.15;;;4.65;;
70266;SDS011;57676;43.856;1.926;2022-08-03T13:07:11;4.70;;;4.22;;
70266;SDS011;57676;43.856;1.926;2022-08-03T13:09:41;5.40;;;4.45;;
70266;SDS011;57676;43.856;1.926;2022-08-03T13:12:11;5.43;;;5.03;;
70266;SDS011;57676;43.856;1.926;2022-08-03T13:14:39;4.80;;;4.40;;
70266;SDS011;57676;43.856;1.926;2022-08-03T13:17:07;5.10;;;4.70;;
70266;SDS011;57676;43.856;1.926;2022-08-03T13:19:33;4.88;;;4.47;;
70266;SDS011;57676;43.856;1.926;2022-08-03T13:22:00;5.30;;;4.25;;
70266;SDS011;57676;43.856;1.926;2022-08-03T13:24:38;6.38;;;4.78;;
70266;SDS011;57676;43.856;1.926;2022-08-03T13:27:04;4.90;;;4.47;;
70266;SDS011;57676;43.856;1.926;2022-08-03T13:29:32;4.97;;;4.57;;
70266;SDS011;57676;43.856;1.926;2022-08-03T13:31:59;4.60;;;4.22;;
70266;SDS011;57676;43.856;1.926;2022-08-03T13:34:26;7.22;;;4.38;;
70266;SDS011;57676;43.856;1.926;2022-08-03T13:36:51;5.63;;;5.13;;
70266;SDS011;57676;43.856;1.926;2022-08-03T13:39:18;4.93;;;4.43;;
70266;SDS011;57676;43.856;1.926;2022-08-03T13:41:45;4.72;;;4.32;;
70266;SDS011;57676;43.856;1.926;2022-08-03T13:44:11;8.48;;;4.68;;
70266;SDS011;57676;43.856;1.926;2022-08-03T13:46:37;6.13;;;4.20;;
70266;SDS011;57676;43.856;1.926;2022-08-03T13:49:04;7.05;;;4.85;;
70266;SDS011;57676;43.856;1.926;2022-08-03T13:51:30;5.00;;;4.60;;
70266;SDS011;57676;43.856;1.926;2022-08-03T13:53:56;8.68;;;4.95;;
70266;SDS011;57676;43.856;1.926;2022-08-03T13:56:25;5.85;;;4.63;;
70266;SDS011;57676;43.856;1.926;2022-08-03T13:58:51;4.65;;;4.35;;
70266;SDS011;57676;43.856;1.926;2022-08-03T14:01:18;5.03;;;4.60;;
70266;SDS011;57676;43.856;1.926;2022-08-03T14:03:45;5.88;;;4.47;;
70266;SDS011;57676;43.856;1.926;2022-08-03T14:06:14;6.20;;;4.25;;
70266;SDS011;57676;43.856;1.926;2022-08-03T14:08:41;5.00;;;4.57;;
70266;SDS011;57676;43.856;1.926;2022-08-03T14:11:07;5.57;;;4.65;;
70266;SDS011;57676;43.856;1.926;2022-08-03T14:13:33;5.70;;;4.60;;
70266;SDS011;57676;43.856;1.926;2022-08-03T14:15:59;6.28;;;4.28;;
70266;SDS011;57676;43.856;1.926;2022-08-03T14:18:26;5.85;;;4.43;;
70266;SDS011;57676;43.856;1.926;2022-08-03T14:20:52;5.93;;;4.70;;
70266;SDS011;57676;43.856;1.926;2022-08-03T14:23:18;4.63;;;4.30;;
70266;SDS011;57676;43.856;1.926;2022-08-03T14:25:44;5.38;;;4.97;;
70266;SDS011;57676;43.856;1.926;2022-08-03T14:28:10;4.95;;;4.55;;
70266;SDS011;57676;43.856;1.926;2022-08-03T14:30:37;4.95;;;4.43;;
70266;SDS011;57676;43.856;1.926;2022-08-03T14:33:05;5.05;;;4.60;;
70266;SDS011;57676;43.856;1.926;2022-08-03T14:35:41;4.97;;;4.47;;
70266;SDS011;57676;43.856;1.926;2022-08-03T14:38:29;5.75;;;4.40;;
70266;SDS011;57676;43.856;1.926;2022-08-03T14:40:58;6.30;;;4.47;;
70266;SDS011;57676;43.856;1.926;2022-08-03T14:43:25;6.70;;;4.72;;
70266;SDS011;57676;43.856;1.926;2022-08-03T14:45:51;4.97;;;4.57;;
70266;SDS011;57676;43.856;1.926;2022-08-03T14:48:19;5.35;;;4.57;;
70266;SDS011;57676;43.856;1.926;2022-08-03T14:50:48;5.25;;;4.80;;
70266;SDS011;57676;43.856;1.926;2022-08-03T14:53:17;5.72;;;4.28;;
70266;SDS011;57676;43.856;1.926;2022-08-03T14:55:44;4.80;;;4.40;;
70266;SDS011;57676;43.856;1.926;2022-08-03T14:58:13;6.63;;;4.60;;
70266;SDS011;57676;43.856;1.926;2022-08-03T15:00:39;4.20;;;3.80;;
70266;SDS011;57676;43.856;1.926;2022-08-03T15:03:05;4.82;;;4.40;;
70266;SDS011;57676;43.856;1.926;2022-08-03T15:05:31;4.53;;;4.20;;
70266;SDS011;57676;43.856;1.926;2022-08-03T15:07:57;4.70;;;4.15;;
70266;SDS011;57676;43.856;1.926;2022-08-03T15:10:23;4.47;;;4.18;;
70266;SDS011;57676;43.856;1.926;2022-08-03T15:12:48;4.72;;;4.30;;
70266;SDS011;57676;43.856;1.926;2022-08-03T15:15:14;6.45;;;5.35;;
70266;SDS011;57676;43.856;1.926;2022-08-03T15:17:40;7.70;;;4.72;;
70266;SDS011;57676;43.856;1.926;2022-08-03T15:20:06;5.80;;;4.78;;
70266;SDS011;57676;43.856;1.926;2022-08-03T15:22:33;4.50;;;4.03;;
70266;SDS011;57676;43.856;1.926;2022-08-03T15:24:59;5.82;;;4.47;;
70266;SDS011;57676;43.856;1.926;2022-08-03T15:27:26;4.82;;;4.43;;
70266;SDS011;57676;43.856;1.926;2022-08-03T15:29:52;5.63;;;3.90;;
70266;SDS011;57676;43.856;1.926;2022-08-03T15:32:18;4.43;;;4.00;;
70266;SDS011;57676;43.856;1.926;2022-08-03T15:34:45;4.45;;;4.05;;
70266;SDS011;57676;43.856;1.926;2022-08-03T15:37:11;6.20;;;4.53;;
70266;SDS011;57676;43.856;1.926;2022-08-03T15:39:37;7.60;;;3.78;;
70266;SDS011;57676;43.856;1.926;2022-08-03T15:42:03;6.80;;;4.35;;
70266;SDS011;57676;43.856;1.926;2022-08-03T15:44:29;11.25;;;4.53;;
70266;SDS011;57676;43.856;1.926;2022-08-03T15:46:55;4.13;;;3.83;;
70266;SDS011;57676;43.856;1.926;2022-08-03T15:49:20;6.50;;;4.10;;
70266;SDS011;57676;43.856;1.926;2022-08-03T15:51:46;5.53;;;4.28;;
70266;SDS011;57676;43.856;1.926;2022-08-03T15:54:12;6.20;;;4.40;;
70266;SDS011;57676;43.856;1.926;2022-08-03T15:56:38;4.00;;;3.70;;
70266;SDS011;57676;43.856;1.926;2022-08-03T15:59:05;5.18;;;4.47;;
70266;SDS011;57676;43.856;1.926;2022-08-03T16:01:31;4.32;;;3.92;;
70266;SDS011;57676;43.856;1.926;2022-08-03T16:03:57;4.95;;;4.55;;
70266;SDS011;57676;43.856;1.926;2022-08-03T16:06:23;7.38;;;4.15;;
70266;SDS011;57676;43.856;1.926;2022-08-03T16:08:49;4.45;;;3.63;;
70266;SDS011;57676;43.856;1.926;2022-08-03T16:11:15;3.97;;;3.67;;